createdAt,value
2019-03-06T00:00:31.952Z,98105.82
2019-03-06T00:02:58.484Z,98116.20
2019-03-06T00:05:26.647Z,98117.08
2019-03-06T00:07:53.456Z,98117.06
2019-03-06T00:10:22.653Z,98121.39
2019-03-06T00:12:49.144Z,98130.92
2019-03-06T00:15:15.686Z,98129.19
2019-03-06T00:17:42.367Z,98124.42
2019-03-06T00:20:09.063Z,98123.09
2019-03-06T00:22:35.576Z,98123.97
2019-03-06T00:25:02.284Z,98121.38
2019-03-06T00:27:28.835Z,98119.21
2019-03-06T00:29:55.613Z,98121.38
2019-03-06T00:32:22.182Z,98110.14
2019-03-06T00:34:49.650Z,98120.53
2019-03-06T00:37:16.206Z,98116.64
2019-03-06T00:39:58.365Z,98117.94
2019-03-06T00:42:25.091Z,98113.18
2019-03-06T00:44:51.913Z,98118.81
2019-03-06T00:47:18.633Z,98119.66
2019-03-06T00:49:45.202Z,98125.25
2019-03-06T00:52:11.772Z,98124.81
2019-03-06T00:54:38.439Z,98118.31
2019-03-06T00:57:05.127Z,98123.05
2019-03-06T00:59:31.716Z,98113.55
2019-03-06T01:01:58.606Z,98110.97
2019-03-06T01:04:25.383Z,98107.51
2019-03-06T01:06:52.113Z,98110.97
2019-03-06T01:09:18.607Z,98099.73
2019-03-06T01:11:45.163Z,98098.84
2019-03-06T01:14:11.977Z,98097.57
2019-03-06T01:16:38.947Z,98103.16
2019-03-06T01:19:05.593Z,98104.92
2019-03-06T01:21:32.127Z,98092.81
2019-03-06T01:23:58.842Z,98098.84
2019-03-06T01:26:25.545Z,98101.85
2019-03-06T01:28:52.188Z,98100.55
2019-03-06T01:31:18.915Z,98096.25
2019-03-06T01:34:06.557Z,98102.72
2019-03-06T01:36:52.795Z,98097.95
2019-03-06T01:39:29.262Z,98085.42
2019-03-06T01:42:03.980Z,98091.91
2019-03-06T01:44:35.130Z,98088.45
2019-03-06T01:47:01.747Z,98094.51
2019-03-06T01:49:28.423Z,98090.19
2019-03-06T01:51:54.911Z,98094.49
2019-03-06T01:54:21.460Z,98103.11
2019-03-06T01:56:48.237Z,98103.97
2019-03-06T01:59:14.788Z,98106.56
2019-03-06T02:01:41.441Z,98101.34
2019-03-06T02:04:07.959Z,98104.40
2019-03-06T02:06:34.519Z,98099.67
2019-03-06T02:09:01.119Z,98103.61
2019-03-06T02:11:27.774Z,98099.30
2019-03-06T02:13:54.627Z,98096.30
2019-03-06T02:16:21.162Z,98089.39
2019-03-06T02:18:47.705Z,98077.29
2019-03-06T02:21:15.286Z,98084.20
2019-03-06T02:23:41.893Z,98083.76
2019-03-06T02:26:08.362Z,98077.72
2019-03-06T02:28:34.848Z,98076.83
2019-03-06T02:31:02.639Z,98070.37
2019-03-06T02:33:29.452Z,98077.70
2019-03-06T02:35:56.001Z,98076.84
2019-03-06T02:38:22.678Z,98070.35
2019-03-06T02:40:49.197Z,98076.84
2019-03-06T02:43:15.763Z,98069.48
2019-03-06T02:45:42.377Z,98069.91
2019-03-06T02:48:09.012Z,98063.42
2019-03-06T02:50:35.510Z,98059.53
2019-03-06T02:53:02.361Z,98053.91
2019-03-06T02:55:30.514Z,98050.87
2019-03-06T02:58:10.741Z,98055.65
2019-03-06T03:00:49.889Z,98047.84
2019-03-06T03:03:45.128Z,98049.59
2019-03-06T03:06:22.975Z,98035.75
2019-03-06T03:08:49.531Z,98032.30
2019-03-06T03:11:16.316Z,98025.36
2019-03-06T03:13:43.132Z,98035.73
2019-03-06T03:16:09.809Z,98044.80
2019-03-06T03:18:37.076Z,98034.45
2019-03-06T03:21:03.780Z,98028.81
2019-03-06T03:23:30.385Z,98026.22
2019-03-06T03:25:56.968Z,98035.73
2019-03-06T03:28:23.803Z,98022.78
2019-03-06T03:30:50.569Z,98017.59
2019-03-06T03:33:17.292Z,98023.65
2019-03-06T03:35:43.872Z,98015.43
2019-03-06T03:38:10.478Z,98011.55
2019-03-06T03:40:37.005Z,98013.27
2019-03-06T03:43:03.662Z,98011.09
2019-03-06T03:45:30.227Z,98000.73
2019-03-06T03:47:56.752Z,97998.55
2019-03-06T03:50:23.582Z,97999.44
2019-03-06T03:52:50.180Z,98002.88
2019-03-06T03:55:16.910Z,98003.75
2019-03-06T03:57:43.849Z,98004.19
2019-03-06T04:00:11.682Z,98000.30
2019-03-06T04:02:39.360Z,97998.13
2019-03-06T04:05:06.833Z,97994.26
2019-03-06T04:07:33.377Z,97989.04
2019-03-06T04:10:00.521Z,97986.88
2019-03-06T04:12:27.077Z,97986.91
2019-03-06T04:14:53.627Z,97986.89
2019-03-06T04:17:20.163Z,97990.34
2019-03-06T04:19:46.738Z,97993.36
2019-03-06T04:22:13.309Z,98000.73
2019-03-06T04:24:40.023Z,97995.09
2019-03-06T04:27:06.542Z,97995.52
2019-03-06T04:29:33.473Z,97992.08
2019-03-06T04:31:59.972Z,97982.56
2019-03-06T04:34:26.511Z,97987.75
2019-03-06T04:36:53.774Z,97989.45
2019-03-06T04:39:20.354Z,97985.16
2019-03-06T04:41:46.926Z,97992.94
2019-03-06T04:44:13.404Z,97985.14
2019-03-06T04:46:40.013Z,97992.50
2019-03-06T04:49:06.838Z,97986.89
2019-03-06T04:51:33.565Z,97978.64
2019-03-06T04:54:00.117Z,97970.86
2019-03-06T04:56:26.758Z,97961.77
2019-03-06T04:58:53.620Z,97966.09
2019-03-06T05:01:22.881Z,97950.08
2019-03-06T05:03:50.654Z,97958.73
2019-03-06T05:06:17.124Z,97954.88
2019-03-06T05:08:43.669Z,97950.52
2019-03-06T05:11:10.206Z,97960.47
2019-03-06T05:13:36.771Z,97960.86
2019-03-06T05:16:03.252Z,97966.05
2019-03-06T05:18:34.385Z,97971.66
2019-03-06T05:21:00.980Z,97962.14
2019-03-06T05:23:27.723Z,97964.24
2019-03-06T05:25:54.329Z,97965.55
2019-03-06T05:28:20.818Z,97957.73
2019-03-06T05:30:47.687Z,97965.93
2019-03-06T05:33:14.385Z,97963.37
2019-03-06T05:36:11.795Z,97951.69
2019-03-06T05:38:45.859Z,97947.83
2019-03-06T05:41:12.708Z,97933.09
2019-03-06T05:43:39.764Z,97930.93
2019-03-06T05:46:06.593Z,97920.55
2019-03-06T05:48:33.378Z,97916.64
2019-03-06T05:50:59.970Z,97922.26
2019-03-06T05:53:26.679Z,97922.66
2019-03-06T05:55:53.529Z,97920.08
2019-03-06T05:58:20.116Z,97912.31
2019-03-06T06:00:46.911Z,97916.66
2019-03-06T06:03:14.507Z,97923.09
2019-03-06T06:05:41.109Z,97926.93
2019-03-06T06:08:07.808Z,97915.19
2019-03-06T06:10:34.576Z,97913.42
2019-03-06T06:13:02.715Z,97908.55
2019-03-06T06:15:29.333Z,97912.45
2019-03-06T06:17:56.345Z,97903.80
2019-03-06T06:20:23.006Z,97901.13
2019-03-06T06:23:09.269Z,97905.03
2019-03-06T06:25:36.962Z,97890.68
2019-03-06T06:28:03.886Z,97883.28
2019-03-06T06:30:30.616Z,97878.05
2019-03-06T06:32:57.146Z,97885.42
2019-03-06T06:35:24.127Z,97888.86
2019-03-06T06:37:51.137Z,97884.54
2019-03-06T06:40:20.534Z,97886.69
2019-03-06T06:42:47.291Z,97883.16
2019-03-06T06:45:15.400Z,97882.32
2019-03-06T06:48:19.985Z,97884.45
2019-03-06T06:51:09.818Z,97875.74
2019-03-06T06:53:47.722Z,97879.97
2019-03-06T06:56:56.537Z,97874.30
2019-03-06T06:59:33.450Z,97871.25
2019-03-06T07:02:42.601Z,97855.56
2019-03-06T07:05:48.092Z,97847.68
2019-03-06T07:08:32.707Z,97834.58
2019-03-06T07:11:19.082Z,97826.22
2019-03-06T07:14:17.560Z,97830.84
2019-03-06T07:16:57.554Z,97817.83
2019-03-06T07:19:40.304Z,97816.58
2019-03-06T07:22:23.343Z,97807.40
2019-03-06T07:25:07.007Z,97808.65
2019-03-06T07:27:41.943Z,97799.41
2019-03-06T07:30:38.045Z,97793.32
2019-03-06T07:33:24.570Z,97789.39
2019-03-06T07:36:20.939Z,97785.80
2019-03-06T07:38:50.687Z,97779.17
2019-03-06T07:41:55.206Z,97776.47
2019-03-06T07:44:48.202Z,97777.75
2019-03-06T07:47:34.678Z,97774.67
2019-03-06T07:50:19.376Z,97782.41
2019-03-06T07:54:01.484Z,97782.77
2019-03-06T07:56:32.096Z,97786.67
2019-03-06T07:58:58.806Z,97776.97
2019-03-06T08:01:28.979Z,97778.53
2019-03-06T08:04:01.422Z,97780.19
2019-03-06T08:06:28.166Z,97773.17
2019-03-06T08:08:54.831Z,97780.88
2019-03-06T08:11:28.414Z,97786.73
2019-03-06T08:14:06.807Z,97791.69
2019-03-06T08:16:39.376Z,97794.03
2019-03-06T08:19:24.690Z,97789.02
2019-03-06T08:22:04.148Z,97796.22
2019-03-06T08:24:48.563Z,97785.08
2019-03-06T08:27:16.224Z,97793.52
2019-03-06T08:29:43.074Z,97797.94
2019-03-06T08:32:20.218Z,97780.27
2019-03-06T08:34:46.793Z,97786.52
2019-03-06T08:37:13.512Z,97779.69
2019-03-06T08:39:40.222Z,97782.19
2019-03-06T08:42:11.869Z,97787.05
2019-03-06T08:44:39.834Z,97784.80
2019-03-06T08:47:24.863Z,97778.77
2019-03-06T08:50:26.068Z,97778.01
2019-03-06T08:53:10.792Z,97775.28
2019-03-06T08:56:04.935Z,97762.93
2019-03-06T08:58:49.892Z,97763.62
2019-03-06T09:02:01.541Z,97771.56
2019-03-06T09:04:41.658Z,97760.49
2019-03-06T09:07:28.005Z,97759.23
2019-03-06T09:10:36.081Z,97760.78
2019-03-06T09:13:22.805Z,97766.91
2019-03-06T09:16:06.079Z,97770.88
2019-03-06T09:18:56.000Z,97778.94
2019-03-06T09:21:51.437Z,97773.25
2019-03-06T09:24:30.091Z,97758.46
2019-03-06T09:27:06.701Z,97749.05
2019-03-06T09:29:51.257Z,97753.03
2019-03-06T09:32:30.056Z,97749.53
2019-03-06T09:35:11.125Z,97750.14
2019-03-06T09:38:11.000Z,97746.75
2019-03-06T09:41:05.850Z,97755.42
2019-03-06T09:43:50.660Z,97732.10
2019-03-06T09:46:23.026Z,97734.97
2019-03-06T09:49:11.842Z,97741.20
2019-03-06T09:52:03.551Z,97724.87
2019-03-06T09:54:48.373Z,97717.80
2019-03-06T09:57:29.733Z,97717.48
2019-03-06T10:00:16.002Z,97710.50
2019-03-06T10:03:05.341Z,97715.06
2019-03-06T10:05:51.629Z,97719.16
2019-03-06T10:08:52.796Z,97709.55
2019-03-06T10:11:42.007Z,97709.13
2019-03-06T10:14:16.942Z,97702.33
2019-03-06T10:16:59.679Z,97696.33
2019-03-06T10:19:38.682Z,97701.00
2019-03-06T10:22:05.433Z,97707.05
2019-03-06T10:24:32.111Z,97705.86
2019-03-06T10:26:59.956Z,97700.25
2019-03-06T10:29:27.878Z,97695.91
2019-03-06T10:31:54.732Z,97689.51
2019-03-06T10:34:21.763Z,97683.37
2019-03-06T10:36:48.344Z,97692.69
2019-03-06T10:39:16.108Z,97685.62
2019-03-06T10:41:42.911Z,97670.00
2019-03-06T10:44:10.283Z,97666.08
2019-03-06T10:46:37.185Z,97664.12
2019-03-06T10:49:04.032Z,97649.33
2019-03-06T10:51:31.146Z,97661.48
2019-03-06T10:53:58.488Z,97661.64
2019-03-06T10:56:25.464Z,97664.94
2019-03-06T10:58:54.842Z,97650.37
2019-03-06T11:01:25.202Z,97657.81
2019-03-06T11:04:17.495Z,97641.69
2019-03-06T11:06:44.099Z,97631.20
2019-03-06T11:09:10.902Z,97631.20
2019-03-06T11:11:37.811Z,97630.45
2019-03-06T11:14:06.355Z,97630.28
2019-03-06T11:16:35.547Z,97627.66
2019-03-06T11:19:02.255Z,97624.78
2019-03-06T11:21:29.130Z,97606.97
2019-03-06T11:23:58.095Z,97606.83
2019-03-06T11:26:25.168Z,97611.04
2019-03-06T11:28:52.424Z,97606.85
2019-03-06T11:31:19.427Z,97610.02
2019-03-06T11:33:46.371Z,97603.61
2019-03-06T11:36:13.360Z,97598.09
2019-03-06T11:38:44.382Z,97590.65
2019-03-06T11:41:10.963Z,97587.78
2019-03-06T11:43:38.148Z,97564.87
2019-03-06T11:46:05.967Z,97564.59
2019-03-06T11:48:32.622Z,97562.65
2019-03-06T11:51:05.560Z,97558.80
2019-03-06T11:53:34.815Z,97549.38
2019-03-06T11:56:02.030Z,97545.91
2019-03-06T11:58:28.841Z,97543.55
2019-03-06T12:00:55.697Z,97540.56
2019-03-06T12:03:22.471Z,97548.14
2019-03-06T12:05:49.627Z,97550.64
2019-03-06T12:08:19.245Z,97542.99
2019-03-06T12:10:46.704Z,97545.47
2019-03-06T12:13:14.338Z,97529.06
2019-03-06T12:15:42.287Z,97531.87
2019-03-06T12:18:09.008Z,97517.69
2019-03-06T12:20:35.715Z,97498.21
2019-03-06T12:23:03.748Z,97499.82
2019-03-06T12:25:30.923Z,97481.13
2019-03-06T12:27:57.634Z,97488.94
2019-03-06T12:30:24.364Z,97474.92
2019-03-06T12:32:51.549Z,97471.37
2019-03-06T12:35:18.680Z,97446.36
2019-03-06T12:37:47.221Z,97445.23
2019-03-06T12:40:15.490Z,97448.43
2019-03-06T12:42:42.156Z,97418.13
2019-03-06T12:45:11.782Z,97420.92
2019-03-06T12:47:42.595Z,97429.46
2019-03-06T12:50:12.468Z,97416.89
2019-03-06T12:52:39.827Z,97408.25
2019-03-06T12:55:07.503Z,97404.59
2019-03-06T12:57:34.246Z,97404.70
2019-03-06T13:00:02.942Z,97393.41
2019-03-06T13:02:29.489Z,97388.08
2019-03-06T13:04:56.755Z,97386.52
2019-03-06T13:07:23.504Z,97367.98
2019-03-06T13:09:50.103Z,97374.57
2019-03-06T13:12:16.790Z,97360.80
2019-03-06T13:14:43.662Z,97374.70
2019-03-06T13:17:10.405Z,97370.00
2019-03-06T13:19:36.922Z,97369.22
2019-03-06T13:22:11.114Z,97368.62
2019-03-06T13:24:37.871Z,97362.80
2019-03-06T13:27:06.851Z,97353.84
2019-03-06T13:29:36.419Z,97354.88
2019-03-06T13:32:11.489Z,97351.61
2019-03-06T13:34:50.623Z,97350.16
2019-03-06T13:37:16.633Z,97339.08
2019-03-06T13:39:44.052Z,97326.27
2019-03-06T13:42:18.845Z,97327.33
2019-03-06T13:44:45.872Z,97322.19
2019-03-06T13:47:12.466Z,97313.66
2019-03-06T13:49:43.859Z,97321.69
2019-03-06T13:52:11.920Z,97313.66
2019-03-06T13:54:38.626Z,97313.67
2019-03-06T13:57:05.523Z,97295.42
2019-03-06T13:59:32.211Z,97296.52
2019-03-06T14:01:59.065Z,97282.75
2019-03-06T14:04:26.277Z,97285.23
2019-03-06T14:06:55.494Z,97277.11
2019-03-06T14:09:23.373Z,97276.95
2019-03-06T14:11:51.820Z,97261.25
2019-03-06T14:14:18.535Z,97271.46
2019-03-06T14:16:45.226Z,97269.75
2019-03-06T14:19:12.366Z,97254.02
2019-03-06T14:21:41.112Z,97256.41
2019-03-06T14:24:07.947Z,97250.09
2019-03-06T14:26:35.145Z,97232.14
2019-03-06T14:29:02.267Z,97235.05
2019-03-06T14:31:29.421Z,97232.08
2019-03-06T14:33:57.959Z,97211.32
2019-03-06T14:36:24.711Z,97212.03
2019-03-06T14:38:53.478Z,97218.87
2019-03-06T14:41:21.557Z,97228.95
2019-03-06T14:43:48.616Z,97215.73
2019-03-06T14:46:16.752Z,97214.69
2019-03-06T14:48:46.605Z,97211.95
2019-03-06T14:51:14.013Z,97213.19
2019-03-06T14:53:41.874Z,97208.55
2019-03-06T14:56:09.666Z,97198.14
2019-03-06T14:58:39.312Z,97199.80
2019-03-06T15:01:06.236Z,97187.13
2019-03-06T15:03:33.126Z,97189.52
2019-03-06T15:06:00.178Z,97195.04
2019-03-06T15:08:26.975Z,97190.71
2019-03-06T15:10:54.078Z,97193.45
2019-03-06T15:13:20.929Z,97192.75
2019-03-06T15:15:47.655Z,97184.17
2019-03-06T15:18:14.497Z,97185.59
2019-03-06T15:20:41.333Z,97172.46
2019-03-06T15:23:09.281Z,97169.06
2019-03-06T15:25:36.168Z,97173.84
2019-03-06T15:28:02.931Z,97169.84
2019-03-06T15:30:30.109Z,97169.38
2019-03-06T15:32:57.379Z,97163.54
2019-03-06T15:35:25.689Z,97156.05
2019-03-06T15:37:52.674Z,97147.62
2019-03-06T15:40:22.359Z,97154.89
2019-03-06T15:42:50.004Z,97155.09
2019-03-06T15:45:21.481Z,97135.27
2019-03-06T15:47:48.475Z,97136.97
2019-03-06T15:50:15.905Z,97115.02
2019-03-06T15:52:42.914Z,97115.64
2019-03-06T15:55:10.687Z,97113.13
2019-03-06T15:57:37.698Z,97112.37
2019-03-06T16:00:09.462Z,97136.34
2019-03-06T16:02:36.238Z,97133.05
2019-03-06T16:05:05.538Z,97139.23
2019-03-06T16:07:32.449Z,97131.50
2019-03-06T16:09:59.112Z,97131.09
2019-03-06T16:12:26.613Z,97133.33
2019-03-06T16:14:54.127Z,97131.24
2019-03-06T16:17:21.481Z,97128.61
2019-03-06T16:19:49.637Z,97130.47
2019-03-06T16:22:19.325Z,97125.59
2019-03-06T16:24:46.713Z,97128.69
2019-03-06T16:27:14.155Z,97139.28
2019-03-06T16:29:41.600Z,97125.67
2019-03-06T16:32:09.392Z,97118.72
2019-03-06T16:34:36.291Z,97115.24
2019-03-06T16:37:03.539Z,97105.58
2019-03-06T16:39:31.629Z,97102.10
2019-03-06T16:41:58.469Z,97103.16
2019-03-06T16:44:25.042Z,97094.34
2019-03-06T16:46:52.157Z,97091.59
2019-03-06T16:49:18.942Z,97092.64
2019-03-06T16:51:45.489Z,97086.61
2019-03-06T16:54:12.374Z,97086.42
2019-03-06T16:56:39.186Z,97088.87
2019-03-06T16:59:06.234Z,97075.53
2019-03-06T17:01:33.152Z,97073.45
2019-03-06T17:03:59.841Z,97071.75
2019-03-06T17:06:27.913Z,97063.98
2019-03-06T17:08:54.582Z,97066.38
2019-03-06T17:11:21.887Z,97059.35
2019-03-06T17:13:48.685Z,97056.64
2019-03-06T17:16:15.626Z,97057.76
2019-03-06T17:18:42.222Z,97046.44
2019-03-06T17:21:09.145Z,97040.34
2019-03-06T17:23:35.787Z,97044.08
2019-03-06T17:26:02.539Z,97043.80
2019-03-06T17:28:29.355Z,97043.17
2019-03-06T17:30:55.966Z,97042.63
2019-03-06T17:33:22.521Z,97044.95
2019-03-06T17:35:50.438Z,97054.38
2019-03-06T17:38:16.956Z,97048.34
2019-03-06T17:40:44.902Z,97056.94
2019-03-06T17:43:11.886Z,97052.42
2019-03-06T17:45:38.601Z,97057.88
2019-03-06T17:48:05.600Z,97053.53
2019-03-06T17:50:32.315Z,97052.95
2019-03-06T17:52:59.380Z,97058.08
2019-03-06T17:55:26.426Z,97046.92
2019-03-06T17:57:53.045Z,97049.98
2019-03-06T18:00:23.392Z,97045.39
2019-03-06T18:02:50.125Z,97037.94
2019-03-06T18:05:16.953Z,97038.98
2019-03-06T18:07:43.550Z,97024.42
2019-03-06T18:10:11.206Z,97022.30
2019-03-06T18:12:37.861Z,97019.36
2019-03-06T18:15:07.316Z,97009.72
2019-03-06T18:17:33.900Z,97006.55
2019-03-06T18:20:00.813Z,97005.66
2019-03-06T18:22:27.349Z,97006.28
2019-03-06T18:24:54.086Z,96996.89
2019-03-06T18:27:26.333Z,96994.08
2019-03-06T18:29:49.197Z,96987.77
2019-03-06T18:32:18.759Z,96989.81
2019-03-06T18:34:46.769Z,96983.45
2019-03-06T18:37:17.366Z,96977.91
2019-03-06T18:39:44.369Z,96979.30
2019-03-06T18:42:11.010Z,96989.19
2019-03-06T18:44:38.978Z,96985.98
2019-03-06T18:47:05.785Z,96988.74
2019-03-06T18:49:33.068Z,96998.48
2019-03-06T18:52:11.539Z,97000.83
2019-03-06T18:54:39.354Z,97009.48
2019-03-06T18:57:07.567Z,97003.35
2019-03-06T18:59:34.555Z,96990.31
2019-03-06T19:02:01.133Z,96988.53
2019-03-06T19:04:29.050Z,96980.66
2019-03-06T19:06:58.956Z,96987.69
2019-03-06T19:09:26.447Z,96985.19
2019-03-06T19:11:55.334Z,96976.69
2019-03-06T19:14:23.234Z,96976.67
2019-03-06T19:17:03.017Z,96978.48
2019-03-06T19:19:29.816Z,96982.42
2019-03-06T19:21:56.639Z,96974.31
2019-03-06T19:24:23.636Z,96976.02
2019-03-06T19:26:50.554Z,96978.84
2019-03-06T19:29:17.432Z,96979.77
2019-03-06T19:31:45.411Z,96975.86
2019-03-06T19:34:13.421Z,96976.19
2019-03-06T19:36:41.473Z,96979.56
2019-03-06T19:39:08.642Z,96983.42
2019-03-06T19:41:36.559Z,96976.31
2019-03-06T19:44:03.533Z,96983.32
2019-03-06T19:46:34.292Z,96977.77
2019-03-06T19:49:01.823Z,96976.53
2019-03-06T19:51:32.871Z,96978.53
2019-03-06T19:53:59.843Z,96975.05
2019-03-06T19:56:27.074Z,96960.61
2019-03-06T19:59:02.982Z,96964.71
2019-03-06T20:01:32.032Z,96957.08
2019-03-06T20:04:00.817Z,96947.50
2019-03-06T20:06:27.763Z,96956.54
2019-03-06T20:08:55.832Z,96955.41
2019-03-06T20:11:22.569Z,96938.41
2019-03-06T20:13:49.598Z,96945.91
2019-03-06T20:16:21.002Z,96952.60
2019-03-06T20:18:48.442Z,96955.46
2019-03-06T20:21:24.355Z,96955.84
2019-03-06T20:23:51.724Z,96957.23
2019-03-06T20:26:20.034Z,96949.02
2019-03-06T20:28:51.314Z,96954.67
2019-03-06T20:31:17.981Z,96958.06
2019-03-06T20:33:45.552Z,96952.41
2019-03-06T20:36:12.532Z,96953.64
2019-03-06T20:38:39.623Z,96939.73
2019-03-06T20:41:07.317Z,96941.74
2019-03-06T20:43:44.578Z,96928.62
2019-03-06T20:46:11.533Z,96915.19
2019-03-06T20:48:38.931Z,96911.70
2019-03-06T20:51:05.473Z,96908.75
2019-03-06T20:53:33.027Z,96905.01
2019-03-06T20:55:59.811Z,96902.05
2019-03-06T20:58:26.730Z,96891.63
2019-03-06T21:00:53.751Z,96889.23
2019-03-06T21:03:20.723Z,96882.03
2019-03-06T21:05:47.626Z,96881.83
2019-03-06T21:08:15.570Z,96874.18
2019-03-06T21:10:42.164Z,96876.21
2019-03-06T21:13:09.277Z,96872.53
2019-03-06T21:15:36.174Z,96871.22
2019-03-06T21:18:37.802Z,96867.58
2019-03-06T21:21:05.224Z,96867.38
2019-03-06T21:24:01.538Z,96863.66
2019-03-06T21:26:34.291Z,96858.86
2019-03-06T21:29:06.941Z,96854.25
2019-03-06T21:31:34.155Z,96852.16
2019-03-06T21:34:01.656Z,96837.86
2019-03-06T21:36:30.039Z,96831.16
2019-03-06T21:38:59.834Z,96831.25
2019-03-06T21:41:27.042Z,96830.00
2019-03-06T21:43:55.939Z,96822.97
2019-03-06T21:46:25.415Z,96831.39
2019-03-06T21:48:54.098Z,96825.76
2019-03-06T21:51:21.034Z,96820.97
2019-03-06T21:53:51.755Z,96824.91
2019-03-06T21:56:19.273Z,96833.89
2019-03-06T21:58:47.986Z,96820.34
2019-03-06T22:01:30.939Z,96817.28
2019-03-06T22:03:59.516Z,96814.66
2019-03-06T22:06:26.540Z,96812.16
2019-03-06T22:08:53.557Z,96808.55
2019-03-06T22:11:20.397Z,96806.83
2019-03-06T22:13:48.252Z,96811.48
2019-03-06T22:16:16.096Z,96787.45
2019-03-06T22:18:44.756Z,96798.17
2019-03-06T22:21:12.860Z,96781.34
2019-03-06T22:23:45.711Z,96777.16
2019-03-06T22:26:15.012Z,96776.94
2019-03-06T22:28:43.122Z,96768.41
2019-03-06T22:31:09.691Z,96772.61
2019-03-06T22:33:41.583Z,96769.83
2019-03-06T22:36:09.087Z,96771.21
2019-03-06T22:38:36.912Z,96771.59
2019-03-06T22:41:06.003Z,96767.95
2019-03-06T22:43:33.231Z,96759.86
2019-03-06T22:46:01.365Z,96758.45
2019-03-06T22:48:28.538Z,96765.41
2019-03-06T22:50:57.553Z,96771.77
2019-03-06T22:53:32.511Z,96776.47
2019-03-06T22:56:09.550Z,96768.50
2019-03-06T22:58:42.527Z,96771.59
2019-03-06T23:01:35.612Z,96778.33
2019-03-06T23:04:13.238Z,96779.64
2019-03-06T23:06:44.633Z,96776.31
2019-03-06T23:09:29.330Z,96781.02
2019-03-06T23:12:10.935Z,96794.41
2019-03-06T23:14:44.152Z,96789.45
2019-03-06T23:17:20.179Z,96785.13
2019-03-06T23:19:55.125Z,96786.15
2019-03-06T23:22:22.406Z,96779.03
2019-03-06T23:25:01.028Z,96771.70
2019-03-06T23:27:39.290Z,96774.63
2019-03-06T23:30:24.277Z,96770.61
2019-03-06T23:32:54.403Z,96770.98
2019-03-06T23:35:32.821Z,96763.57
2019-03-06T23:38:00.762Z,96758.31
2019-03-06T23:40:27.944Z,96753.44
2019-03-06T23:42:55.555Z,96743.94
2019-03-06T23:45:29.328Z,96748.03
2019-03-06T23:47:57.398Z,96757.61
2019-03-06T23:50:31.901Z,96747.95
2019-03-06T23:53:04.954Z,96737.89
2019-03-06T23:55:32.639Z,96734.95
2019-03-06T23:58:01.447Z,96737.57
